Central Nebraska Regional Airport
KGRI : now visible

Airfield :











YOU CAN JOIN US ON...

 
LOGIN :

Register | Disclaimer

   EN    FR    IT 

 









Legend :    VFR   Marginal VFR   IFR   Intensive IFR   Very Intensive IFR
Visi :
Ceiling :
>= 8 km
>= 3000ft
5 to 8 km
1000 to 3000 ft
1500m to 5 km
500 to 1000 ft
800 to 1500m
200 to 500 ft
< 800m
< 200 ft
Symbols :   Thunderstorms  Fog  Heavy snow  Heavy precipitations  Wind > 20 kt







- Airport Elevation : 1847 ft
- IATA code : GRI


KGRI - Central Nebraska Regional

CURRENT METAR :
  • 221215Z 34018G26KT 10SM OVC016 11/07 A2996 RMK AO2 PK WND 34029/1157 T01060072

EXPIRED METARs :
  • 221153Z 34017KT 10SM OVC013 11/08 A2995 RMK AO2 SLP137 T01060078 10150 20106 53027
  • 221053Z AUTO 33014G23KT 10SM OVC012 12/08 A2991 RMK AO2 SLP121 T01170083
  • 220953Z AUTO 31014G23KT 10SM OVC012 12/09 A2989 RMK AO2 SLP114 T01220094

TAF KGRI
Valid from the 22 at 12:00 until the 23 at 12:00 UTC


221124Z 2212/2312 33017G25KT P6SM OVC012
FM221800 34019G25KT P6SM BKN025
FM222100 35018G24KT P6SM BKN040
FM230100 36007KT P6SM FEW200
KZMP FIR / North America



MET'MAP, your aeronautical weather chart ! - Copyright ORBIFLY December 2007 - Disclaimer

ORBIFLY MET'MAP TEAM :

Programming & Development : Alexandra Zaïnal
Concept & Development : Baudouin d'Aumeries
Co-Development & Prog : Marc-Olivier Méhu
Technical & hardware support : Manuel Goepfert

Contact : metmap@orbifly.com




SOURCES & CREDITS :

   NOAA       Earth
Advisory